Time;durP1;ratioP1;P1;durP2;ratioP2;P2;SDS_P1;SDS_P2;PMS_P1;PMS_P2;Temp;Humidity;BMP_temperature;BMP_pressure;BME280_temperature;BME280_humidity;BME280_pressure;Samples;Min_cycle;Max_cycle;Signal;HPM_P1;HPM_P2
2023/06/24 00:02:15;;;;;;;;;4.50;4.50;;;;;25.22;39.81;102016.25;5088039;27;45333;-62
2023/06/24 00:04:40;;;;;;;;;5.00;5.00;;;;;25.19;40.46;102019.09;5098572;27;45476;-62
2023/06/24 00:07:06;;;;;;;;;5.25;5.25;;;;;25.18;40.15;102014.69;5087971;27;45433;-62
2023/06/24 00:09:31;;;;;;;;;6.50;5.75;;;;;25.14;39.96;102007.75;5099769;27;46303;-62
2023/06/24 00:12:01;;;;;;;;;4.50;4.00;;;;;25.13;40.00;102011.38;5081227;27;45268;-62
2023/06/24 00:14:27;;;;;;;;;4.75;3.75;;;;;25.12;40.12;102012.38;5080317;27;45349;-62
2023/06/24 00:16:56;;;;;;;;;5.50;5.50;;;;;25.09;40.39;102016.09;5086063;27;45505;-62
2023/06/24 00:19:25;;;;;;;;;3.75;3.75;;;;;25.02;40.57;102003.03;5085877;27;47181;-62
2023/06/24 00:21:52;;;;;;;;;8.75;7.00;;;;;25.02;40.45;102009.31;5086463;27;45314;-62
2023/06/24 00:24:19;;;;;;;;;5.25;5.25;;;;;24.99;40.27;102004.97;5099199;27;45383;-62
2023/06/24 00:26:46;;;;;;;;;8.00;6.25;;;;;24.99;40.73;102009.47;5089525;27;45462;-62
2023/06/24 00:29:11;;;;;;;;;6.00;5.00;;;;;24.96;40.95;102007.81;5102215;27;45170;-62
2023/06/24 00:31:36;;;;;;;;;6.00;6.00;;;;;24.91;40.54;102006.34;5082373;27;45205;-62
2023/06/24 00:34:02;;;;;;;;;7.50;6.75;;;;;24.91;40.55;102006.34;5097421;27;45284;-62
2023/06/24 00:36:27;;;;;;;;;8.00;7.00;;;;;24.87;40.51;102005.66;5095260;27;45601;-62
2023/06/24 00:38:52;;;;;;;;;6.00;5.00;;;;;24.83;40.47;101998.72;5082530;27;45225;-62
2023/06/24 00:41:18;;;;;;;;;6.25;5.00;;;;;24.82;40.94;102005.88;5090382;27;45327;-62
2023/06/24 00:43:45;;;;;;;;;7.50;6.00;;;;;24.80;40.97;102009.63;5101978;27;45298;-62
2023/06/24 00:46:10;;;;;;;;;7.25;6.00;;;;;24.79;40.95;102005.19;5094546;27;45477;-62
2023/06/24 00:48:36;;;;;;;;;6.50;6.00;;;;;24.75;40.84;101999.09;5089120;27;45416;-62
2023/06/24 00:51:01;;;;;;;;;7.50;6.25;;;;;24.75;41.21;102006.31;5103082;27;45338;-62
2023/06/24 00:53:27;;;;;;;;;8.25;7.00;;;;;24.72;41.06;102009.19;5089302;27;45452;-62
2023/06/24 00:55:55;;;;;;;;;4.00;2.75;;;;;24.68;41.17;102011.16;5081538;27;45508;-62
2023/06/24 00:58:21;;;;;;;;;8.00;7.25;;;;;24.67;41.21;102004.91;5094984;27;48139;-62
2023/06/24 01:00:56;;;;;;;;;5.25;5.25;;;;;24.65;41.17;102005.94;5093499;27;45311;-62
2023/06/24 01:03:23;;;;;;;;;6.00;6.00;;;;;24.62;41.14;102012.31;5081139;27;45312;-62
2023/06/24 01:05:49;;;;;;;;;8.50;7.50;;;;;24.58;40.83;102007.16;5102585;27;45318;-62
2023/06/24 01:08:15;;;;;;;;;8.50;8.00;;;;;24.58;41.39;102009.84;5100216;27;45438;-62
2023/06/24 01:10:41;;;;;;;;;8.25;6.00;;;;;24.53;41.18;102007.44;5102418;27;45485;-62
2023/06/24 01:13:06;;;;;;;;;6.00;6.00;;;;;24.53;40.99;102007.44;5100576;27;45390;-62
2023/06/24 01:15:33;;;;;;;;;6.00;6.00;;;;;24.48;41.42;101994.25;5075079;27;45497;-62
2023/06/24 01:18:20;;;;;;;;;7.00;7.00;;;;;24.47;41.66;102002.38;5096463;27;47036;-62
2023/06/24 01:21:03;;;;;;;;;8.25;8.25;;;;;24.43;41.17;101996.31;5058634;27;45327;-62
2023/06/24 01:23:35;;;;;;;;;5.00;5.00;;;;;24.43;41.30;102007.06;5089471;27;45298;-62
2023/06/24 01:26:41;;;;;;;;;6.00;5.25;;;;;24.41;41.17;102000.03;5088545;27;45419;-62
2023/06/24 01:29:44;;;;;;;;;6.00;5.50;;;;;24.34;41.24;102003.03;5101627;27;46176;-62
2023/06/24 01:32:33;;;;;;;;;6.75;6.75;;;;;24.34;41.40;101994.13;5094139;27;45300;-62
2023/06/24 01:35:15;;;;;;;;;8.50;5.75;;;;;24.32;41.55;101993.31;5098940;27;45402;-62
2023/06/24 01:37:54;;;;;;;;;8.25;7.00;;;;;24.29;41.93;101991.66;5083545;27;45498;-62
2023/06/24 01:40:43;;;;;;;;;4.25;4.25;;;;;24.24;41.50;101992.84;5081319;27;45371;-62
2023/06/24 01:43:09;;;;;;;;;7.50;5.00;;;;;24.23;41.21;101994.69;5091771;27;45368;-62
2023/06/24 01:45:45;;;;;;;;;8.00;6.75;;;;;24.22;41.37;101989.38;5093613;27;45288;-62
2023/06/24 01:48:15;;;;;;;;;6.75;5.25;;;;;24.20;41.54;101994.84;5090297;27;45468;-62
2023/06/24 01:50:54;;;;;;;;;6.75;6.75;;;;;24.17;41.89;101990.47;5086588;27;45359;-62
2023/06/24 01:53:22;;;;;;;;;6.00;6.00;;;;;24.14;41.74;101985.28;5087528;27;45480;-62
2023/06/24 01:55:49;;;;;;;;;4.50;4.00;;;;;24.13;41.46;101986.22;5088639;27;45358;-62
2023/06/24 01:58:18;;;;;;;;;4.25;4.25;;;;;24.11;41.43;101984.56;5100339;27;45544;-62
2023/06/24 02:00:44;;;;;;;;;7.75;6.00;;;;;24.08;41.50;101982.91;5080999;28;46108;-62
2023/06/24 02:03:10;;;;;;;;;5.50;5.50;;;;;24.07;41.83;101988.38;5081291;28;46502;-61
2023/06/24 02:05:39;;;;;;;;;6.25;5.00;;;;;24.03;41.55;101979.59;5090094;27;45492;-62
2023/06/24 02:08:08;;;;;;;;;6.25;6.25;;;;;24.05;41.71;101984.88;5099605;27;45363;-62
2023/06/24 02:10:37;;;;;;;;;6.25;6.25;;;;;24.02;41.87;101980.53;5082458;27;46767;-62
2023/06/24 02:13:04;;;;;;;;;4.75;4.75;;;;;24.00;41.97;101994.06;5099976;27;45521;-62
2023/06/24 02:15:31;;;;;;;;;5.50;5.50;;;;;23.98;41.68;101987.88;5086494;27;45387;-61
2023/06/24 02:17:59;;;;;;;;;8.25;8.00;;;;;23.96;41.82;101986.22;5098702;27;45473;-62
2023/06/24 02:20:26;;;;;;;;;5.00;5.00;;;;;23.93;41.75;101991.75;5090094;27;45346;-61
2023/06/24 02:22:53;;;;;;;;;7.00;7.00;;;;;23.93;41.72;101986.41;5084754;27;45281;-62
2023/06/24 02:25:19;;;;;;;;;6.00;5.75;;;;;23.90;41.92;101987.38;5090697;27;45496;-62
2023/06/24 02:27:45;;;;;;;;;8.25;8.00;;;;;23.90;41.77;101991.88;5098246;27;46268;-62
2023/06/24 02:30:12;;;;;;;;;5.75;5.00;;;;;23.86;41.57;101991.16;5090615;27;46274;-62
2023/06/24 02:32:38;;;;;;;;;6.00;6.00;;;;;23.83;41.66;101989.50;5097554;27;45267;-62
2023/06/24 02:35:04;;;;;;;;;7.00;7.00;;;;;23.82;41.97;101995.84;5098691;27;45310;-62
2023/06/24 02:37:30;;;;;;;;;5.00;5.00;;;;;23.82;41.97;102000.31;5082864;27;45750;-62
2023/06/24 02:39:56;;;;;;;;;8.00;8.00;;;;;23.80;41.76;101995.03;5090998;27;45305;-62
2023/06/24 02:42:21;;;;;;;;;6.00;4.00;;;;;23.77;42.26;101988.94;5087396;27;45412;-62
2023/06/24 02:44:47;;;;;;;;;7.75;6.00;;;;;23.76;41.95;101993.47;5071341;27;45672;-62
2023/06/24 02:47:15;;;;;;;;;6.50;5.00;;;;;23.72;42.31;101989.16;5082982;27;45548;-62
2023/06/24 02:49:46;;;;;;;;;8.50;7.25;;;;;23.74;42.18;101998.03;5091346;27;45394;-62
2023/06/24 02:52:11;;;;;;;;;5.00;5.00;;;;;23.72;42.25;102001.72;5095715;27;45489;-62
2023/06/24 02:54:39;;;;;;;;;8.00;7.00;;;;;23.70;42.05;101997.31;5092524;27;45300;-62
2023/06/24 02:57:06;;;;;;;;;5.00;5.00;;;;;23.68;42.09;101993.84;5077138;28;45628;-62
2023/06/24 02:59:32;;;;;;;;;4.25;4.25;;;;;23.65;41.64;101987.75;5092127;27;45281;-62
2023/06/24 03:01:59;;;;;;;;;5.25;4.00;;;;;23.67;42.16;101996.59;5100298;27;45180;-62
2023/06/24 03:04:26;;;;;;;;;8.75;8.75;;;;;23.64;41.95;101999.44;5088114;27;45287;-62
2023/06/24 03:06:52;;;;;;;;;6.00;6.00;;;;;23.60;42.25;101993.34;5100123;27;45511;-62
2023/06/24 03:09:18;;;;;;;;;6.75;4.25;;;;;23.59;42.20;101999.66;5097850;27;46964;-62
2023/06/24 03:11:44;;;;;;;;;7.25;6.75;;;;;23.59;42.16;101999.66;5100187;27;45374;-62
2023/06/24 03:14:10;;;;;;;;;6.00;4.25;;;;;23.56;42.25;101991.78;5089343;27;45333;-62
2023/06/24 03:16:37;;;;;;;;;5.50;5.50;;;;;23.54;42.36;101989.13;5085452;27;45242;-62
2023/06/24 03:19:03;;;;;;;;;9.50;7.25;;;;;23.55;42.37;101984.66;5088894;27;46357;-62
2023/06/24 03:21:28;;;;;;;;;5.00;5.00;;;;;23.51;42.44;101988.44;5084823;27;45231;-62
2023/06/24 03:23:54;;;;;;;;;5.75;5.75;;;;;23.49;42.43;101987.66;5082459;27;45303;-62
2023/06/24 03:26:20;;;;;;;;;5.00;5.00;;;;;23.49;42.15;101991.19;5086741;27;45243;-62
2023/06/24 03:28:45;;;;;;;;;7.50;7.50;;;;;23.48;42.70;101993.94;5100552;27;46217;-62
2023/06/24 03:31:11;;;;;;;;;4.50;4.50;;;;;23.47;42.42;101987.72;5095572;27;45457;-62
2023/06/24 03:33:36;;;;;;;;;7.50;6.50;;;;;23.43;42.57;101990.63;5073416;27;45383;-62
2023/06/24 03:36:02;;;;;;;;;6.75;6.50;;;;;23.42;42.63;101987.09;5095673;27;45463;-62
2023/06/24 03:38:28;;;;;;;;;6.25;5.75;;;;;23.42;42.60;101988.88;5091534;27;46206;-62
2023/06/24 03:40:53;;;;;;;;;7.00;7.00;;;;;23.37;42.37;101994.50;5095108;27;45272;-62
2023/06/24 03:43:19;;;;;;;;;7.00;5.75;;;;;23.37;42.50;101991.81;5080062;28;45543;-62
2023/06/24 03:45:44;;;;;;;;;7.50;7.00;;;;;23.39;42.67;101999.78;5084754;27;45382;-62
2023/06/24 03:48:09;;;;;;;;;6.75;5.50;;;;;23.36;42.58;101993.59;5100371;27;45405;-62
2023/06/24 03:50:35;;;;;;;;;7.75;6.00;;;;;23.32;42.74;101996.50;5081397;27;45360;-62
2023/06/24 03:53:02;;;;;;;;;6.25;6.25;;;;;23.33;42.27;102006.28;5080057;28;45312;-62
2023/06/24 03:55:27;;;;;;;;;4.25;4.25;;;;;23.27;42.64;101995.84;5098449;27;45391;-62
2023/06/24 03:57:52;;;;;;;;;7.50;6.25;;;;;23.28;42.50;102001.16;5087754;27;46265;-62
2023/06/24 04:00:20;;;;;;;;;6.25;6.25;;;;;23.25;42.85;102009.34;5062290;28;46084;-62
2023/06/24 04:02:46;;;;;;;;;9.00;6.50;;;;;23.24;42.83;102007.59;5083267;27;45308;-62
2023/06/24 04:05:11;;;;;;;;;6.50;6.50;;;;;23.23;42.99;102007.69;5088620;27;45382;-62
2023/06/24 04:07:37;;;;;;;;;8.25;7.00;;;;;23.17;42.76;101998.13;5103581;27;45433;-62
2023/06/24 04:10:03;;;;;;;;;5.75;5.75;;;;;23.19;42.70;102006.94;5100988;27;45345;-62
2023/06/24 04:12:29;;;;;;;;;7.50;6.75;;;;;23.20;42.83;102011.38;5103823;27;45330;-62
2023/06/24 04:14:54;;;;;;;;;8.25;6.50;;;;;23.16;43.03;102007.09;5068080;27;45390;-62
2023/06/24 04:17:20;;;;;;;;;11.00;8.00;;;;;23.14;42.97;102004.44;5094354;27;45502;-62
2023/06/24 04:19:45;;;;;;;;;11.50;9.50;;;;;23.15;42.94;102013.38;5089550;27;45453;-62
2023/06/24 04:22:10;;;;;;;;;10.75;8.25;;;;;23.13;42.83;102008.09;5103766;27;45256;-62
2023/06/24 04:24:35;;;;;;;;;8.25;7.50;;;;;23.12;43.03;102005.47;5103043;27;49462;-62
2023/06/24 04:27:01;;;;;;;;;7.75;7.75;;;;;23.09;42.91;102009.16;5093345;27;45208;-61
2023/06/24 04:29:26;;;;;;;;;11.75;10.00;;;;;23.11;43.06;102006.44;5099622;27;45406;-62
2023/06/24 04:31:51;;;;;;;;;9.50;8.50;;;;;23.10;43.37;102002.00;5093380;27;45276;-62
2023/06/24 04:34:17;;;;;;;;;8.50;8.00;;;;;23.10;43.14;102007.38;5089891;27;50061;-61
2023/06/24 04:36:42;;;;;;;;;8.00;6.50;;;;;23.09;42.99;102011.84;5102895;27;49608;-62
2023/06/24 04:39:08;;;;;;;;;9.75;9.25;;;;;23.08;43.31;102009.25;5070713;27;45326;-61
2023/06/24 04:41:33;;;;;;;;;12.75;10.75;;;;;23.06;43.24;102006.63;5103109;27;45292;-62
2023/06/24 04:43:59;;;;;;;;;12.50;10.75;;;;;23.05;43.24;102013.78;5089276;27;45596;-62
2023/06/24 04:46:26;;;;;;;;;21.75;17.00;;;;;23.03;43.03;102013.00;5102818;27;45323;-62
2023/06/24 04:48:52;;;;;;;;;9.00;8.75;;;;;23.04;43.33;102016.53;5085572;27;45316;-62
2023/06/24 04:51:17;;;;;;;;;10.25;8.75;;;;;23.02;43.19;102008.59;5082645;27;45330;-62
2023/06/24 04:53:42;;;;;;;;;9.50;8.00;;;;;23.02;43.26;102011.25;5082376;27;45533;-62
2023/06/24 04:56:07;;;;;;;;;10.50;10.00;;;;;23.01;43.45;102011.34;5081993;27;48828;-61
2023/06/24 04:58:33;;;;;;;;;11.75;10.25;;;;;23.02;43.22;102018.44;5099221;27;48950;-62
2023/06/24 05:00:58;;;;;;;;;12.75;12.50;;;;;23.02;43.43;102018.44;5073878;28;45486;-61
2023/06/24 05:03:24;;;;;;;;;10.50;10.00;;;;;23.02;43.45;102016.63;5082229;27;45457;-62
2023/06/24 05:05:49;;;;;;;;;13.25;11.00;;;;;23.00;43.62;102007.78;5081682;27;48048;-62
2023/06/24 05:08:15;;;;;;;;;12.00;9.75;;;;;22.99;43.37;102002.50;5100555;27;45326;-62
2023/06/24 05:10:40;;;;;;;;;9.25;9.00;;;;;22.99;43.70;102011.44;5075635;28;45372;-62
2023/06/24 05:13:05;;;;;;;;;8.25;7.25;;;;;22.99;43.60;102005.19;5094673;27;45563;-62
2023/06/24 05:15:31;;;;;;;;;8.00;8.00;;;;;22.99;43.55;102008.75;5075349;28;50107;-61
2023/06/24 05:17:59;;;;;;;;;9.00;8.00;;;;;22.98;43.46;102007.00;5096608;27;45430;-62
2023/06/24 05:20:25;;;;;;;;;9.50;9.00;;;;;22.99;43.61;102006.06;5091554;27;45290;-62
2023/06/24 05:22:50;;;;;;;;;9.00;9.00;;;;;23.00;43.53;102006.91;5083768;27;45667;-62
2023/06/24 05:25:16;;;;;;;;;17.75;14.25;;;;;22.95;43.73;102003.59;5102141;27;46894;-62
2023/06/24 05:27:41;;;;;;;;;11.50;10.75;;;;;22.95;43.79;102007.13;5070123;27;45403;-62
2023/06/24 05:30:07;;;;;;;;;12.00;11.00;;;;;22.97;43.69;102002.56;5102495;27;45378;-62
2023/06/24 05:32:32;;;;;;;;;8.00;7.50;;;;;22.99;43.65;102002.50;5085362;27;46442;-61
2023/06/24 05:34:59;;;;;;;;;10.00;8.00;;;;;23.00;43.59;102002.41;5098813;27;46116;-62
2023/06/24 05:37:24;;;;;;;;;11.25;8.75;;;;;22.97;43.86;101999.03;5085666;27;45355;-61
2023/06/24 05:39:49;;;;;;;;;8.75;8.25;;;;;23.00;43.82;102013.13;5081644;27;45386;-62
2023/06/24 05:42:14;;;;;;;;;9.00;8.00;;;;;23.00;43.72;102005.09;5098307;27;45512;-62
2023/06/24 05:44:40;;;;;;;;;7.00;7.00;;;;;23.00;43.87;101997.06;5092435;27;46323;-62
2023/06/24 05:47:05;;;;;;;;;6.00;5.00;;;;;23.03;43.52;102013.00;5084141;27;45422;-62
2023/06/24 05:49:30;;;;;;;;;9.75;7.25;;;;;23.04;43.62;102009.41;5102361;27;45254;-62
2023/06/24 05:51:57;;;;;;;;;8.75;8.50;;;;;23.04;43.96;102005.81;5069717;27;46100;-62
2023/06/24 05:54:22;;;;;;;;;6.75;6.75;;;;;23.03;44.00;102007.66;5101932;27;47108;-62
2023/06/24 05:56:48;;;;;;;;;6.00;6.00;;;;;23.05;43.81;102008.44;5066774;28;45219;-61
2023/06/24 05:59:13;;;;;;;;;8.50;7.50;;;;;23.08;44.13;102007.44;5081499;27;45341;-62
2023/06/24 06:01:38;;;;;;;;;7.25;6.00;;;;;23.10;43.89;102018.09;5084102;27;45399;-61
2023/06/24 06:04:04;;;;;;;;;8.25;7.75;;;;;23.06;43.69;102003.97;5101533;27;45338;-61
2023/06/24 06:06:29;;;;;;;;;9.50;7.75;;;;;23.12;44.05;102013.50;5087897;27;45308;-62
2023/06/24 06:08:56;;;;;;;;;7.25;7.25;;;;;23.12;44.32;102011.72;5101995;27;45376;-62
2023/06/24 06:11:22;;;;;;;;;8.50;8.00;;;;;23.14;43.56;102011.63;5101434;27;45410;-62
2023/06/24 06:13:47;;;;;;;;;7.75;7.75;;;;;23.16;43.80;102015.16;5093895;27;46087;-62
2023/06/24 06:16:13;;;;;;;;;9.00;8.25;;;;;23.15;43.80;102011.59;5095090;27;45407;-62
2023/06/24 06:18:38;;;;;;;;;7.00;7.00;;;;;23.19;43.65;102017.66;5093706;27;45439;-61
2023/06/24 06:21:03;;;;;;;;;8.25;5.00;;;;;23.22;43.84;102017.53;5082035;27;45482;-62
2023/06/24 06:23:29;;;;;;;;;8.00;8.00;;;;;23.20;43.64;102014.91;5100733;27;45314;-61
2023/06/24 06:25:55;;;;;;;;;6.00;6.00;;;;;23.23;43.96;102016.56;5087676;27;45281;-61
2023/06/24 06:28:20;;;;;;;;;10.25;6.75;;;;;23.23;43.81;102008.53;5083208;27;45329;-61
2023/06/24 06:30:46;;;;;;;;;9.75;6.25;;;;;23.26;43.73;102013.75;5087256;27;45562;-61
2023/06/24 06:33:11;;;;;;;;;6.00;6.00;;;;;23.25;44.05;102006.66;5080769;27;46156;-61
2023/06/24 06:35:36;;;;;;;;;5.00;5.00;;;;;23.29;43.65;102015.44;5081655;27;45223;-62
2023/06/24 06:38:02;;;;;;;;;11.25;7.00;;;;;23.30;44.10;102009.13;5101552;27;45371;-61
2023/06/24 06:40:28;;;;;;;;;7.00;5.00;;;;;23.34;43.68;102014.25;5087342;27;45434;-61
2023/06/24 06:42:53;;;;;;;;;6.25;5.25;;;;;23.37;43.86;102019.47;5082108;27;46252;-61
2023/06/24 06:45:19;;;;;;;;;3.75;3.75;;;;;23.38;43.51;102017.66;5086828;27;45249;-61
2023/06/24 06:47:44;;;;;;;;;9.00;7.50;;;;;23.41;44.08;102019.31;5101312;27;45315;-61
2023/06/24 06:50:10;;;;;;;;;6.00;6.00;;;;;23.43;43.87;102015.63;5087686;27;45330;-61
2023/06/24 06:52:36;;;;;;;;;7.25;7.25;;;;;23.44;43.75;102008.47;5101071;27;46283;-61
2023/06/24 06:55:02;;;;;;;;;7.75;6.00;;;;;23.48;43.68;102018.09;5087023;27;45296;-61
2023/06/24 06:57:27;;;;;;;;;6.50;5.75;;;;;23.47;43.60;102006.50;5082824;27;45336;-61
2023/06/24 06:59:53;;;;;;;;;4.00;4.00;;;;;23.53;43.50;102010.69;5087159;27;45389;-61
2023/06/24 07:02:18;;;;;;;;;6.00;4.00;;;;;23.54;43.62;102012.44;5082259;27;46386;-61
2023/06/24 07:04:44;;;;;;;;;6.50;6.50;;;;;23.56;43.68;102007.88;5086384;27;45312;-61
2023/06/24 07:07:09;;;;;;;;;6.00;6.00;;;;;23.58;43.24;102008.63;5062402;28;45382;-63
2023/06/24 07:09:34;;;;;;;;;6.50;6.50;;;;;23.61;43.58;102008.50;5093059;27;45315;-61
2023/06/24 07:12:00;;;;;;;;;7.25;6.25;;;;;23.65;43.33;102009.22;5080519;27;45396;-67
2023/06/24 07:14:25;;;;;;;;;6.75;6.00;;;;;23.67;43.42;102005.53;5075201;27;45435;-57
2023/06/24 07:16:51;;;;;;;;;8.25;6.50;;;;;23.69;43.37;102011.66;5070477;27;51657;-58
2023/06/24 07:19:16;;;;;;;;;6.50;6.50;;;;;23.73;43.64;102009.69;5087718;27;45228;-58
2023/06/24 07:21:42;;;;;;;;;6.75;6.75;;;;;23.75;43.23;102004.25;5086256;27;45288;-62
2023/06/24 07:24:07;;;;;;;;;5.25;5.25;;;;;23.80;43.33;102012.97;5100769;27;45307;-62
2023/06/24 07:26:32;;;;;;;;;11.00;11.00;;;;;23.80;43.48;102008.44;5086646;27;45290;-61
2023/06/24 07:28:58;;;;;;;;;6.75;6.50;;;;;23.85;43.61;102000.19;5100628;27;45271;-62
2023/06/24 07:31:23;;;;;;;;;7.50;7.50;;;;;23.88;43.02;102002.69;5068105;27;47141;-60
2023/06/24 07:33:49;;;;;;;;;6.25;5.75;;;;;23.91;43.49;102005.28;5093142;27;45284;-58
2023/06/24 07:36:14;;;;;;;;;8.00;7.50;;;;;23.91;43.42;101989.16;5103245;27;45318;-57
2023/06/24 07:38:40;;;;;;;;;7.00;6.00;;;;;24.01;43.17;102009.22;5091442;27;45469;-57
2023/06/24 07:41:05;;;;;;;;;7.00;7.00;;;;;24.04;43.47;101999.25;5088524;27;45288;-56
2023/06/24 07:43:30;;;;;;;;;6.75;5.25;;;;;24.09;43.60;102002.59;5103971;27;45192;-58
2023/06/24 07:45:55;;;;;;;;;8.00;7.00;;;;;24.13;43.44;101996.09;5090118;27;45390;-53
2023/06/24 07:48:21;;;;;;;;;6.25;6.00;;;;;24.17;43.18;101997.69;5104191;27;45383;-53
2023/06/24 07:50:46;;;;;;;;;5.25;5.25;;;;;24.21;43.42;101991.19;5089881;27;45330;-54
2023/06/24 07:53:11;;;;;;;;;6.00;6.00;;;;;24.26;43.13;101999.00;5072484;28;45645;-56
2023/06/24 07:55:37;;;;;;;;;7.00;7.00;;;;;24.31;43.13;102000.53;5096877;27;45368;-58
2023/06/24 07:58:02;;;;;;;;;7.00;7.00;;;;;24.36;42.93;101999.41;5095897;27;45394;-56
2023/06/24 08:00:28;;;;;;;;;8.00;8.00;;;;;24.36;43.20;101991.34;5071378;27;47814;-58
2023/06/24 08:02:55;;;;;;;;;7.75;4.75;;;;;24.46;43.29;101997.97;5091263;27;45488;-58
2023/06/24 08:05:21;;;;;;;;;7.25;7.25;;;;;24.48;43.29;101991.56;5082405;27;45392;-59
2023/06/24 08:07:46;;;;;;;;;4.75;4.50;;;;;24.52;43.62;101992.25;5096026;27;45324;-59
2023/06/24 08:10:11;;;;;;;;;8.00;5.00;;;;;24.57;43.04;101995.56;5103220;27;46283;-59
2023/06/24 08:12:37;;;;;;;;;6.50;6.50;;;;;24.63;43.29;101994.38;5103661;27;45248;-59
2023/06/24 08:15:02;;;;;;;;;7.25;7.25;;;;;24.65;43.40;101981.75;5071125;27;45243;-59
2023/06/24 08:17:28;;;;;;;;;9.25;7.50;;;;;24.70;43.35;101986.88;5102830;27;45162;-59
2023/06/24 08:19:53;;;;;;;;;9.75;7.00;;;;;24.73;42.84;101984.00;5066113;28;46085;-59
2023/06/24 08:22:19;;;;;;;;;7.25;6.50;;;;;24.75;42.81;101980.28;5094825;27;45218;-59
2023/06/24 08:24:44;;;;;;;;;4.75;4.25;;;;;24.80;43.19;101989.00;5102400;27;45690;-59
2023/06/24 08:27:09;;;;;;;;;7.00;5.50;;;;;24.81;42.99;101985.34;5103470;27;45426;-59
2023/06/24 08:29:35;;;;;;;;;8.00;7.75;;;;;24.86;43.28;101992.28;5089163;27;46050;-59
2023/06/24 08:32:00;;;;;;;;;8.75;8.00;;;;;24.89;43.38;101982.25;5103044;27;45229;-59
2023/06/24 08:34:25;;;;;;;;;7.75;6.50;;;;;24.92;42.80;101982.06;5097384;27;45396;-58
2023/06/24 08:36:51;;;;;;;;;7.50;6.00;;;;;24.97;43.20;101982.66;5073387;28;45664;-58
2023/06/24 08:39:16;;;;;;;;;7.00;6.25;;;;;25.01;42.90;101985.22;5100699;27;46084;-59
2023/06/24 08:41:41;;;;;;;;;6.00;6.00;;;;;25.04;42.89;101976.94;5098340;27;45380;-59
2023/06/24 08:44:07;;;;;;;;;8.75;7.50;;;;;25.08;43.13;101982.09;5095565;27;45567;-59
2023/06/24 08:46:35;;;;;;;;;7.00;7.00;;;;;25.12;42.81;101972.88;5101449;27;45412;-59
2023/06/24 08:49:17;;;;;;;;;9.25;6.25;;;;;25.14;42.86;101970.09;5102545;27;46471;-59
2023/06/24 08:51:46;;;;;;;;;6.00;6.00;;;;;25.20;43.19;101966.19;5098817;27;45465;-59
2023/06/24 08:54:14;;;;;;;;;6.75;6.00;;;;;25.23;42.92;101969.59;5097107;27;45358;-59
2023/06/24 08:56:41;;;;;;;;;7.00;6.25;;;;;25.26;43.38;101960.47;5081172;27;45244;-59
2023/06/24 08:59:06;;;;;;;;;8.50;7.25;;;;;25.33;42.91;101977.13;5102455;27;46251;-59
2023/06/24 09:01:32;;;;;;;;;7.25;6.75;;;;;25.31;42.63;101964.63;5102493;27;45426;-59
2023/06/24 09:03:57;;;;;;;;;6.50;6.00;;;;;25.39;43.19;101964.22;5102902;27;45331;-59
2023/06/24 09:06:23;;;;;;;;;7.25;5.50;;;;;25.43;42.99;101959.53;5102775;27;45457;-59
2023/06/24 09:08:55;;;;;;;;;9.25;7.25;;;;;25.47;43.11;101953.00;5102187;27;46693;-59
2023/06/24 09:11:27;;;;;;;;;9.00;9.00;;;;;25.52;42.72;101955.44;5100005;27;45618;-59
2023/06/24 09:14:00;;;;;;;;;5.75;5.00;;;;;25.55;42.82;101952.56;5091647;27;45336;-59
2023/06/24 09:16:26;;;;;;;;;7.00;7.00;;;;;25.50;42.81;101939.38;5085776;27;45466;-59
2023/06/24 09:18:53;;;;;;;;;7.50;7.00;;;;;25.62;43.12;101954.81;5092526;27;46233;-59
2023/06/24 09:21:24;;;;;;;;;8.00;8.00;;;;;25.68;43.20;101952.72;5081812;27;45303;-59
2023/06/24 09:23:52;;;;;;;;;8.00;7.50;;;;;25.71;43.20;101952.50;5082150;27;45432;-59
2023/06/24 09:26:18;;;;;;;;;7.75;7.50;;;;;25.74;43.28;101945.13;5081379;27;45427;-59
2023/06/24 09:28:48;;;;;;;;;6.50;5.50;;;;;25.78;43.34;101935.91;5090877;27;45224;-59
2023/06/24 09:31:13;;;;;;;;;9.50;7.25;;;;;25.84;42.58;101945.44;5086550;27;45273;-59
2023/06/24 09:33:39;;;;;;;;;7.75;7.75;;;;;25.87;43.15;101942.56;5095956;27;48192;-56
2023/06/24 09:36:05;;;;;;;;;7.00;7.00;;;;;25.68;43.14;101898.88;5100400;27;45367;-57
2023/06/24 09:38:40;;;;;;;;;9.75;9.25;;;;;25.94;42.85;101930.47;5089988;27;45442;-59
2023/06/24 09:41:06;;;;;;;;;7.00;7.00;;;;;25.99;42.72;101930.19;5101754;27;45516;-59
2023/06/24 09:43:36;;;;;;;;;6.00;6.00;;;;;26.04;42.71;101929.94;5088603;27;45218;-59
2023/06/24 09:46:04;;;;;;;;;8.75;8.75;;;;;26.02;42.77;101918.38;5071130;27;45478;-64
2023/06/24 09:48:29;;;;;;;;;9.50;7.75;;;;;26.09;42.76;101931.41;5074423;27;46463;-64
2023/06/24 09:51:01;;;;;;;;;8.75;8.75;;;;;26.13;42.66;101918.59;5063296;28;45606;-64
2023/06/24 09:53:34;;;;;;;;;10.25;9.00;;;;;26.20;42.59;101928.06;5083476;27;45390;-65
2023/06/24 09:56:01;;;;;;;;;9.00;9.00;;;;;26.21;42.81;101905.53;5094665;27;45532;-66
2023/06/24 09:58:35;;;;;;;;;15.50;12.50;;;;;26.30;42.62;101908.59;5090255;27;45296;-66
2023/06/24 10:01:05;;;;;;;;;8.50;7.25;;;;;26.34;42.68;101907.44;5090117;27;45252;-66
2023/06/24 10:03:34;;;;;;;;;9.75;9.25;;;;;26.39;43.41;101903.50;5094180;27;45334;-66
2023/06/24 10:06:01;;;;;;;;;8.25;6.75;;;;;26.42;42.82;101902.44;5091208;27;45442;-66
2023/06/24 10:08:28;;;;;;;;;8.00;8.00;;;;;26.47;42.73;101899.47;5091787;27;46137;-66
2023/06/24 10:10:53;;;;;;;;;10.75;8.75;;;;;26.52;42.84;101894.66;5092227;27;45438;-66
2023/06/24 10:13:19;;;;;;;;;9.00;9.00;;;;;26.56;43.19;101891.63;5090868;27;45271;-66
2023/06/24 10:15:45;;;;;;;;;7.75;7.75;;;;;26.58;42.39;101878.94;5063474;27;45486;-65
2023/06/24 10:18:36;;;;;;;;;8.00;8.00;;;;;26.67;43.01;101882.03;5089398;27;45434;-65
2023/06/24 10:21:07;;;;;;;;;8.25;8.25;;;;;26.72;42.57;101880.75;5090359;27;45374;-65
2023/06/24 10:23:47;;;;;;;;;6.00;6.00;;;;;26.77;42.48;101880.50;5075218;28;45460;-65
2023/06/24 10:26:35;;;;;;;;;10.50;9.00;;;;;26.83;42.62;101876.50;5098055;27;45375;-66
2023/06/24 10:29:06;;;;;;;;;9.25;7.50;;;;;26.89;42.41;101874.31;5101377;27;45545;-65
2023/06/24 10:31:40;;;;;;;;;9.00;8.00;;;;;26.96;42.68;101863.13;5082813;27;45272;-65
2023/06/24 10:34:34;;;;;;;;;8.75;8.50;;;;;27.05;42.39;101865.19;5094994;27;45288;-65
2023/06/24 10:37:30;;;;;;;;;10.00;8.25;;;;;27.13;43.09;101857.47;5089449;27;45394;-64
2023/06/24 10:40:02;;;;;;;;;9.50;9.25;;;;;27.23;42.78;101858.56;5073221;27;45351;-66
2023/06/24 10:42:35;;;;;;;;;9.50;8.75;;;;;27.44;43.15;101850.00;5093071;27;45445;-66
2023/06/24 10:45:10;;;;;;;;;9.50;9.50;;;;;27.67;43.12;101861.03;5073749;27;45407;-66
2023/06/24 10:47:38;;;;;;;;;8.50;8.25;;;;;27.93;43.55;101844.88;5081767;27;45438;-67
2023/06/24 10:50:04;;;;;;;;;7.50;6.50;;;;;28.25;43.20;101844.41;5100841;27;45208;-66
2023/06/24 10:52:30;;;;;;;;;8.25;8.25;;;;;28.56;43.31;101842.19;5100836;27;45149;-66
2023/06/24 10:54:57;;;;;;;;;11.75;11.50;;;;;28.93;43.65;101837.66;5082122;27;45264;-71
2023/06/24 10:57:27;;;;;;;;;7.00;7.00;;;;;29.35;43.03;101838.06;5100905;27;45720;-68
2023/06/24 10:59:54;;;;;;;;;9.00;8.00;;;;;29.74;43.03;101834.25;5051815;27;47350;-73
2023/06/24 11:02:21;;;;;;;;;7.00;6.75;;;;;30.12;42.97;101833.91;5082340;27;45295;-65
2023/06/24 11:04:52;;;;;;;;;7.50;7.50;;;;;30.46;42.55;101833.84;5100902;27;45339;-65
2023/06/24 11:07:19;;;;;;;;;9.75;9.75;;;;;30.83;41.88;101826.41;5101025;27;45265;-65
2023/06/24 11:10:17;;;;;;;;;10.50;10.50;;;;;31.22;42.57;101833.06;5099980;27;45453;-64
2023/06/24 11:12:43;;;;;;;;;10.00;8.50;;;;;31.50;42.18;101825.25;5035158;28;45414;-68
2023/06/24 11:15:10;;;;;;;;;9.50;9.50;;;;;31.73;41.87;101828.69;5093304;27;45308;-61
2023/06/24 11:17:37;;;;;;;;;10.00;10.00;;;;;32.00;41.84;101832.72;5088416;27;45276;-69
2023/06/24 11:20:09;;;;;;;;;10.75;9.50;;;;;32.19;41.15;101815.66;5080824;27;47085;-69
2023/06/24 11:22:34;;;;;;;;;9.75;9.75;;;;;32.45;41.33;101819.72;5100564;27;45344;-69
2023/06/24 11:25:00;;;;;;;;;6.75;6.75;;;;;32.66;41.19;101820.47;5100636;27;45403;-69
2023/06/24 11:27:33;;;;;;;;;7.75;7.75;;;;;32.87;40.73;101809.50;5100718;27;45457;-73